KFLD/FLD METAR and TAF weather

Enter ICAO airport designator
Station Type Date Time Source
KFLD METAR 2019/09/21 21:22 UTC NOAA

KFLD 212122Z AUTO 20009G20KT 10SM -RA FEW012 BKN020 OVC034 23/21 A2994 RMK AO2 P0001 T02280206


Station Type Date Time Source
KFLD Decoded METAR 2019/09/21 21:22 UTC NOAA

FOND DU LAC COUNTY AIRPORT, WI, United States (KFLD) 43-46N 88-29W 240M
Sep 21, 2019 - 05:22 PM EDT / 2019.09.21 2122 UTC
Wind: from the SSW (200 degrees) at 10 MPH (9 KT) gusting to 23 MPH (20 KT):0
Visibility: 10 mile(s):0
Sky conditions: overcast
Weather: light rain
Precipitation last hour: 0.01 inches
Temperature: 73.0 F (22.8 C)
Dew Point: 69.1 F (20.6 C)
Relative Humidity: 87%
Pressure (altimeter): 29.94 in. Hg (1013 hPa)
ob: KFLD 212122Z AUTO 20009G20KT 10SM -RA FEW012 BKN020 OVC034 23/21 A2994 RMK AO2 P0001 T02280206
cycle: 21

Station Type Date Time Source
KFLD TAF UTC NOAA

Error!

Example: see airport list